VAR022 VNLK-VNLK
Flight info
| Callsign | VAR022 |
|---|---|
| Flight time | N/A |
| Altitude | 22500 |
| Route | VFR CAMPO BASE |
| Aircraft | C208/L-SDFGIRY/C |
Departure
| Time | 2025-12-09 20:42 |
|---|---|
| Airport | Tenzing-Hillary Airport (VNLK) |
Arrival
| Time | N/A |
|---|---|
| Airport | Tenzing-Hillary Airport (VNLK) |
| Time | Latitude | Longitude | Altitude | Speed | Heading |
|---|---|---|---|---|---|
| 2025-12-09 20:32 | 27.68733 | 86.73171 | 9408 ft | 0 kts | 248° |
| 2025-12-09 20:36 | 27.68732 | 86.73168 | 9408 ft | 3 kts | 253° |
| 2025-12-09 20:36 | 27.68751 | 86.73159 | 9408 ft | 1 kts | 16° |
| 2025-12-09 20:37 | 27.68778 | 86.73143 | 9408 ft | 0 kts | 239° |
| 2025-12-09 20:39 | 27.68745 | 86.73081 | 9385 ft | 44 kts | 241° |
| 2025-12-09 20:40 | 27.68271 | 86.71510 | 9411 ft | 131 kts | 276° |
| 2025-12-09 20:40 | 27.69391 | 86.70348 | 10154 ft | 131 kts | 353° |
| 2025-12-09 20:41 | 27.71540 | 86.70334 | 10145 ft | 159 kts | 1° |
| 2025-12-09 20:41 | 27.73801 | 86.70597 | 10216 ft | 167 kts | 8° |
| 2025-12-09 20:42 | 27.74897 | 86.70789 | 10587 ft | 154 kts | 8° |
| 2025-12-09 20:42 | 27.76923 | 86.71398 | 11120 ft | 150 kts | 15° |
| 2025-12-09 20:43 | 27.79879 | 86.72345 | 11754 ft | 146 kts | 15° |
| 2025-12-09 20:43 | 27.81794 | 86.73074 | 12287 ft | 145 kts | 27° |
| 2025-12-09 20:44 | 27.83577 | 86.74109 | 12758 ft | 143 kts | 19° |
| 2025-12-09 20:44 | 27.85507 | 86.74144 | 13258 ft | 140 kts | 343° |
| 2025-12-09 20:45 | 27.87298 | 86.73261 | 13692 ft | 143 kts | 333° |
| 2025-12-09 20:45 | 27.89088 | 86.72285 | 13994 ft | 144 kts | 340° |
| 2025-12-09 20:46 | 27.90035 | 86.72176 | 14360 ft | 124 kts | 3° |
| 2025-12-09 20:46 | 27.91820 | 86.71657 | 14699 ft | 126 kts | 7° |
| 2025-12-09 20:47 | 27.93993 | 86.71726 | 15502 ft | 112 kts | 334° |
| 2025-12-09 20:47 | 27.95398 | 86.70855 | 15799 ft | 120 kts | 330° |
| 2025-12-09 20:48 | 27.97000 | 86.70140 | 16011 ft | 128 kts | 344° |
| 2025-12-09 20:48 | 27.98887 | 86.69765 | 16178 ft | 143 kts | 352° |
| 2025-12-09 20:49 | 28.00883 | 86.69819 | 16442 ft | 143 kts | 17° |
| 2025-12-09 20:49 | 28.01792 | 86.70246 | 16624 ft | 139 kts | 15° |
| 2025-12-09 20:50 | 28.03286 | 86.69480 | 16960 ft | 131 kts | 270° |
| 2025-12-09 20:50 | 28.01920 | 86.69371 | 17037 ft | 143 kts | 142° |
| 2025-12-09 20:51 | 27.98987 | 86.69123 | 17185 ft | 150 kts | 200° |
| 2025-12-09 20:51 | 27.97035 | 86.68477 | 17419 ft | 147 kts | 171° |
| 2025-12-09 20:52 | 27.96246 | 86.70085 | 17741 ft | 139 kts | 43° |
| 2025-12-09 20:52 | 27.98109 | 86.69923 | 17923 ft | 142 kts | 336° |
| 2025-12-09 20:53 | 27.99876 | 86.68985 | 18226 ft | 134 kts | 338° |
| 2025-12-09 20:53 | 28.00704 | 86.68541 | 18391 ft | 132 kts | 325° |
| 2025-12-09 20:54 | 28.01917 | 86.66974 | 18651 ft | 140 kts | 302° |
| 2025-12-09 20:54 | 28.02825 | 86.64968 | 18752 ft | 148 kts | 294° |
| 2025-12-09 20:55 | 28.04456 | 86.62056 | 19161 ft | 140 kts | 315° |
| 2025-12-09 20:55 | 28.05699 | 86.60371 | 19238 ft | 151 kts | 303° |
| 2025-12-09 20:56 | 28.07094 | 86.58742 | 19554 ft | 144 kts | 329° |
| 2025-12-09 20:56 | 28.08829 | 86.57874 | 19888 ft | 136 kts | 346° |
| 2025-12-09 20:57 | 28.10643 | 86.57780 | 20234 ft | 125 kts | 359° |
| 2025-12-09 20:57 | 28.12306 | 86.57781 | 20558 ft | 116 kts | 359° |
| 2025-12-09 20:58 | 28.13143 | 86.57784 | 20597 ft | 123 kts | 360° |
| 2025-12-09 20:58 | 28.14882 | 86.57830 | 20747 ft | 126 kts | 6° |
| 2025-12-09 20:59 | 28.17519 | 86.58205 | 21074 ft | 128 kts | 7° |
| 2025-12-09 20:59 | 28.19267 | 86.58552 | 21286 ft | 129 kts | 9° |
| 2025-12-09 21:00 | 28.21038 | 86.58913 | 21522 ft | 129 kts | 9° |
| 2025-12-09 21:00 | 28.22812 | 86.59272 | 21734 ft | 129 kts | 9° |
| 2025-12-09 21:01 | 28.24584 | 86.59633 | 21899 ft | 129 kts | 9° |
| 2025-12-09 21:01 | 28.25183 | 86.59754 | 21955 ft | 129 kts | 9° |